Time;durP1;ratioP1;P1;durP2;ratioP2;P2;SDS_P1;SDS_P2;PMS_P1;PMS_P2;Temp;Humidity;BMP_temperature;BMP_pressure;BME280_temperature;BME280_humidity;BME280_pressure;Samples;Min_cycle;Max_cycle;Signal;HPM_P1;HPM_P2
2023/08/23 00:00:09;;;;;;;5.03;2.60;;;;;;;20.96;71.77;102165.63;5050963;28;20084;-45
2023/08/23 00:02:35;;;;;;;5.80;2.70;;;;;;;20.98;71.71;102155.88;5051937;28;20109;-44
2023/08/23 00:05:00;;;;;;;3.05;2.17;;;;;;;20.97;71.85;102150.59;5050335;28;20475;-47
2023/08/23 00:07:25;;;;;;;3.47;2.20;;;;;;;20.97;71.92;102151.50;5051319;28;20083;-47
2023/08/23 00:09:51;;;;;;;3.40;2.10;;;;;;;20.97;71.98;102148.84;5050470;28;20037;-44
2023/08/23 00:12:17;;;;;;;4.13;2.30;;;;;;;20.98;72.18;102145.25;5051029;28;20036;-47
2023/08/23 00:14:43;;;;;;;3.35;2.20;;;;;;;20.99;71.86;102146.16;5049949;28;20123;-42
2023/08/23 00:17:08;;;;;;;4.55;2.25;;;;;;;20.98;71.85;102139.97;5051081;28;20395;-49
2023/08/23 00:19:33;;;;;;;4.85;2.33;;;;;;;20.96;71.93;102139.13;5050838;28;20072;-42
2023/08/23 00:21:59;;;;;;;3.92;2.42;;;;;;;20.95;72.00;102140.00;5050485;28;20040;-45
2023/08/23 00:24:24;;;;;;;4.13;2.20;;;;;;;20.94;72.21;102143.53;5050563;28;20025;-48
2023/08/23 00:26:49;;;;;;;4.95;2.30;;;;;;;20.94;71.87;102142.66;5050491;28;20381;-45
2023/08/23 00:29:14;;;;;;;5.10;2.38;;;;;;;20.93;72.06;102141.78;5050807;28;20048;-46
2023/08/23 00:31:40;;;;;;;3.25;2.20;;;;;;;20.97;72.09;102140.88;5050882;28;20028;-44
2023/08/23 00:34:05;;;;;;;4.40;2.30;;;;;;;20.96;72.30;102133.81;5050296;28;20033;-42
2023/08/23 00:36:31;;;;;;;4.53;2.40;;;;;;;20.98;72.32;102129.34;5050886;28;20464;-44
2023/08/23 00:38:56;;;;;;;4.28;2.55;;;;;;;20.99;72.57;102131.13;5050742;28;20040;-44
2023/08/23 00:41:23;;;;;;;3.90;2.30;;;;;;;21.00;72.60;102127.56;5052398;28;20033;-44
2023/08/23 00:43:49;;;;;;;4.80;2.40;;;;;;;20.96;73.01;102125.88;5054732;28;20040;-44
2023/08/23 00:46:15;;;;;;;4.90;2.40;;;;;;;20.98;72.61;102121.41;5054094;28;20111;-44
2023/08/23 00:48:41;;;;;;;4.43;2.10;;;;;;;20.98;72.80;102123.19;5053332;28;20029;-44
2023/08/23 00:51:08;;;;;;;3.42;2.25;;;;;;;20.98;72.96;102124.06;5042168;28;20028;-44
2023/08/23 00:53:34;;;;;;;5.35;2.72;;;;;;;21.00;72.82;102126.69;5049375;28;20626;-44
2023/08/23 00:56:00;;;;;;;5.05;2.50;;;;;;;21.04;72.83;102125.78;5046934;28;20060;-42
2023/08/23 00:58:25;;;;;;;3.97;2.40;;;;;;;21.03;73.02;102124.91;5030395;28;20503;-43
2023/08/23 01:00:54;;;;;;;5.55;2.33;;;;;;;21.03;72.67;102122.25;5029862;28;20083;-45
2023/08/23 01:03:19;;;;;;;5.25;2.28;;;;;;;21.01;72.72;102126.69;5030233;28;20034;-46
2023/08/23 01:06:14;;;;;;;4.18;2.30;;;;;;;21.02;73.02;102124.91;5029191;28;20083;-46
2023/08/23 01:08:55;;;;;;;4.93;2.50;;;;;;;21.01;73.23;102131.13;5029482;28;20091;-44
2023/08/23 01:11:43;;;;;;;5.75;2.33;;;;;;;21.01;72.96;102120.50;5049695;28;20028;-46
2023/08/23 01:14:28;;;;;;;3.92;2.30;;;;;;;21.02;73.19;102117.84;5049348;28;20025;-45
2023/08/23 01:16:53;;;;;;;;;;;;;;;20.98;73.44;102118.75;5050096;28;20040;-44
2023/08/23 01:19:38;;;;;;;3.72;2.10;;;;;;;21.02;73.04;102122.28;5049899;28;20295;-50
2023/08/23 01:22:09;;;;;;;4.63;2.28;;;;;;;21.01;72.89;102131.13;5049463;28;20069;-50
2023/08/23 01:24:35;;;;;;;4.82;2.30;;;;;;;20.95;73.25;102121.44;5049062;28;20384;-47
2023/08/23 01:27:00;;;;;;;4.70;2.63;;;;;;;20.97;72.85;102129.41;5049353;28;20151;-45
2023/08/23 01:29:25;;;;;;;7.20;2.70;;;;;;;20.89;73.30;102124.16;5049425;28;20502;-48
2023/08/23 01:31:56;;;;;;;3.92;2.50;;;;;;;20.89;73.32;102125.94;5048905;28;20037;-45
2023/08/23 01:34:27;;;;;;;5.28;2.50;;;;;;;20.85;73.11;102119.78;5049045;28;20072;-44
2023/08/23 01:36:53;;;;;;;6.82;2.42;;;;;;;20.88;72.96;102116.22;5049297;28;20458;-46
2023/08/23 01:39:21;;;;;;;4.68;2.30;;;;;;;20.88;73.16;102118.84;5049391;28;20135;-43
2023/08/23 01:41:47;;;;;;;3.75;2.35;;;;;;;20.81;73.36;102119.81;5048938;28;20503;-45
2023/08/23 01:44:13;;;;;;;3.92;2.28;;;;;;;20.78;72.99;102104.81;5049296;28;20037;-45
2023/08/23 01:46:38;;;;;;;4.88;2.40;;;;;;;20.72;73.29;102112.84;5048057;28;20033;-45
2023/08/23 01:49:03;;;;;;;3.33;2.05;;;;;;;20.67;73.35;102110.19;5049068;28;20037;-44
2023/08/23 01:51:29;;;;;;;3.50;2.13;;;;;;;20.67;73.27;102112.00;5049245;28;20103;-45
2023/08/23 01:53:54;;;;;;;4.22;2.47;;;;;;;20.67;73.37;102106.69;5049032;28;20040;-44
2023/08/23 01:56:19;;;;;;;4.38;2.30;;;;;;;20.67;73.17;102104.06;5049181;28;20037;-43
2023/08/23 01:58:46;;;;;;;3.97;2.30;;;;;;;20.63;73.47;102105.84;5049165;28;20037;-48
2023/08/23 02:01:11;;;;;;;4.68;2.10;;;;;;;20.66;73.32;102104.94;5049283;28;20029;-47
2023/08/23 02:03:37;;;;;;;4.10;2.60;;;;;;;20.63;73.27;102103.19;5049291;28;20056;-45
2023/08/23 02:06:02;;;;;;;3.80;2.30;;;;;;;20.59;73.84;102098.81;5048368;28;20036;-46
2023/08/23 02:08:27;;;;;;;4.28;2.60;;;;;;;20.62;73.80;102082.88;5048915;28;20492;-47
2023/08/23 02:10:53;;;;;;;3.90;2.55;;;;;;;20.61;73.56;102097.00;5048653;28;20033;-45
2023/08/23 02:13:18;;;;;;;3.97;2.53;;;;;;;20.56;74.11;102093.53;5048981;28;20078;-44
2023/08/23 02:15:44;;;;;;;4.90;2.65;;;;;;;20.57;73.97;102097.94;5048331;28;20102;-44
2023/08/23 02:18:09;;;;;;;5.15;3.20;;;;;;;20.60;74.55;102102.34;5049150;28;20086;-44
2023/08/23 02:20:34;;;;;;;7.53;3.22;;;;;;;20.65;74.81;102106.72;5052414;28;20128;-43
2023/08/23 02:23:00;;;;;;;5.63;3.05;;;;;;;20.73;74.89;102093.41;5052557;28;20040;-46
2023/08/23 02:25:25;;;;;;;7.00;3.42;;;;;;;20.82;74.88;102092.41;5052351;28;20453;-44
2023/08/23 02:27:51;;;;;;;4.95;3.40;;;;;;;20.87;74.66;102101.19;5051292;28;20037;-47
2023/08/23 02:30:16;;;;;;;7.97;3.28;;;;;;;20.87;74.81;102094.13;5052816;28;20078;-43
2023/08/23 02:32:42;;;;;;;5.72;3.05;;;;;;;20.92;74.29;102096.75;5052397;28;20037;-46
2023/08/23 02:35:07;;;;;;;6.55;3.42;;;;;;;20.92;74.32;102087.00;5052544;28;20036;-44
2023/08/23 02:37:33;;;;;;;7.28;3.40;;;;;;;20.95;74.38;102080.81;5053061;28;20033;-49
2023/08/23 02:39:58;;;;;;;6.88;3.50;;;;;;;20.95;74.57;102083.44;5052910;28;20056;-45
2023/08/23 02:42:23;;;;;;;7.97;3.65;;;;;;;20.94;74.67;102074.63;5053531;28;20032;-46
2023/08/23 02:44:49;;;;;;;4.95;3.15;;;;;;;20.96;74.60;102087.88;5051592;28;20117;-42
2023/08/23 02:47:14;;;;;;;6.05;3.30;;;;;;;20.96;74.57;102083.44;5053335;28;20064;-43
2023/08/23 02:49:39;;;;;;;6.57;3.45;;;;;;;20.92;75.00;102092.28;5053451;28;20592;-48
2023/08/23 02:52:05;;;;;;;7.93;3.65;;;;;;;20.97;75.01;102089.63;5052828;28;20530;-44
2023/08/23 02:54:30;;;;;;;7.32;3.67;;;;;;;21.00;74.93;102081.63;5052847;28;20029;-44
2023/08/23 02:56:55;;;;;;;6.13;3.60;;;;;;;21.03;74.97;102081.59;5052253;28;20053;-47
2023/08/23 02:59:21;;;;;;;6.57;3.80;;;;;;;21.07;74.97;102075.38;5052176;28;20041;-44
2023/08/23 03:01:46;;;;;;;7.07;3.90;;;;;;;21.10;75.18;102080.66;5051825;28;20037;-46
2023/08/23 03:04:11;;;;;;;9.75;4.25;;;;;;;21.15;75.10;102070.91;5052115;28;20406;-43
2023/08/23 03:06:37;;;;;;;7.00;4.10;;;;;;;21.19;75.44;102072.63;5051908;28;20025;-46
2023/08/23 03:09:02;;;;;;;6.50;3.70;;;;;;;21.25;75.41;102083.16;5050665;28;20570;-47
2023/08/23 03:11:27;;;;;;;8.50;4.05;;;;;;;21.27;75.24;102078.72;5052078;28;20071;-44
2023/08/23 03:13:53;;;;;;;8.27;4.72;;;;;;;21.30;75.14;102077.78;5051530;28;20495;-43
2023/08/23 03:16:18;;;;;;;8.82;4.30;;;;;;;21.31;75.00;102080.44;5050697;28;20036;-45
2023/08/23 03:18:44;;;;;;;5.53;3.60;;;;;;;21.32;74.31;102073.34;5051236;28;20048;-44
2023/08/23 03:21:09;;;;;;;7.45;4.40;;;;;;;21.24;74.49;102084.03;5051715;28;20036;-47
2023/08/23 03:23:34;;;;;;;6.93;4.25;;;;;;;21.23;74.53;102086.69;5051922;28;20174;-46
2023/08/23 03:26:00;;;;;;;8.82;4.05;;;;;;;21.20;74.10;102087.63;5051089;28;20036;-44
2023/08/23 03:28:25;;;;;;;7.90;4.18;;;;;;;21.17;74.19;102089.41;5051951;28;20057;-47
2023/08/23 03:30:50;;;;;;;8.93;4.43;;;;;;;21.13;74.41;102080.59;5050519;28;20033;-44
2023/08/23 03:33:16;;;;;;;7.70;4.30;;;;;;;21.10;74.29;102085.06;5051749;28;20033;-43
2023/08/23 03:35:42;;;;;;;8.57;4.90;;;;;;;21.04;74.71;102083.38;5050458;28;20056;-49
2023/08/23 03:38:07;;;;;;;9.35;4.75;;;;;;;21.03;75.14;102086.91;5051679;28;20112;-42
2023/08/23 03:40:37;;;;;;;10.77;4.50;;;;;;;21.05;74.69;102083.34;5051132;28;20663;-43
2023/08/23 03:43:03;;;;;;;10.88;5.95;;;;;;;20.95;75.38;102094.94;5051238;28;20055;-43
2023/08/23 03:45:30;;;;;;;10.27;5.22;;;;;;;21.02;75.33;102088.69;5050901;28;20029;-43
2023/08/23 03:47:55;;;;;;;11.55;5.35;;;;;;;21.03;75.09;102092.22;5051142;28;20041;-44
2023/08/23 03:50:21;;;;;;;12.13;5.70;;;;;;;20.98;75.50;102089.59;5049167;28;20074;-45
2023/08/23 03:52:46;;;;;;;11.15;5.00;;;;;;;21.01;74.88;102092.22;5050712;28;20068;-43
2023/08/23 03:55:11;;;;;;;11.55;5.40;;;;;;;20.94;75.19;102084.34;5050637;28;20025;-44
2023/08/23 03:57:37;;;;;;;11.43;5.03;;;;;;;20.94;75.25;102087.00;5051317;28;20033;-46
2023/08/23 04:00:03;;;;;;;10.13;5.35;;;;;;;20.93;75.38;102087.88;5051018;28;20507;-43
2023/08/23 04:02:29;;;;;;;13.25;5.90;;;;;;;20.89;75.53;102079.09;5052118;28;20040;-49
2023/08/23 04:04:54;;;;;;;11.35;6.35;;;;;;;20.90;75.58;102086.16;5051889;28;20030;-46
2023/08/23 04:07:19;;;;;;;15.15;7.38;;;;;;;20.82;76.65;102077.38;5051266;28;20039;-46
2023/08/23 04:09:45;;;;;;;14.00;7.22;;;;;;;20.86;76.40;102079.09;5050491;28;20033;-45
2023/08/23 04:12:10;;;;;;;16.48;6.97;;;;;;;20.85;76.73;102076.50;5051065;28;20506;-43
2023/08/23 04:14:36;;;;;;;16.33;7.25;;;;;;;20.85;77.05;102082.69;5050287;28;20521;-47
2023/08/23 04:17:02;;;;;;;16.77;7.28;;;;;;;20.88;76.84;102079.97;5050325;28;20045;-42
2023/08/23 04:19:27;;;;;;;14.48;6.68;;;;;;;20.93;76.50;102082.56;5050518;28;20116;-45
2023/08/23 04:21:53;;;;;;;15.93;7.35;;;;;;;20.94;76.69;102073.72;5050298;28;20135;-45
2023/08/23 04:24:18;;;;;;;14.00;6.50;;;;;;;20.98;76.50;102071.03;5050937;28;20036;-47
2023/08/23 04:26:43;;;;;;;16.92;7.45;;;;;;;20.98;76.33;102073.69;5050941;28;20133;-42
2023/08/23 04:29:09;;;;;;;15.48;7.03;;;;;;;21.00;76.34;102074.56;5050758;28;20116;-42
2023/08/23 04:31:34;;;;;;;14.75;7.05;;;;;;;20.88;77.51;102072.03;5050610;28;20182;-43
2023/08/23 04:34:02;;;;;;;14.18;7.47;;;;;;;20.99;76.73;102070.13;5050072;28;20059;-44
2023/08/23 04:36:27;;;;;;;20.42;8.20;;;;;;;20.97;77.00;102074.59;5049795;28;20037;-44
2023/08/23 04:38:53;;;;;;;15.35;6.97;;;;;;;21.04;77.07;102072.75;5049894;28;20124;-42
2023/08/23 04:41:18;;;;;;;16.02;7.75;;;;;;;21.02;77.25;102069.25;5050305;28;20041;-44
2023/08/23 04:43:43;;;;;;;15.60;7.47;;;;;;;21.02;77.19;102070.13;5049719;28;20040;-43
2023/08/23 04:46:09;;;;;;;20.20;8.13;;;;;;;20.96;77.58;102064.00;5050028;28;20521;-49
2023/08/23 04:48:34;;;;;;;19.08;8.50;;;;;;;21.03;77.30;102068.34;5050236;28;20021;-47
2023/08/23 04:51:00;;;;;;;16.88;7.85;;;;;;;21.04;77.33;102070.97;5049785;28;20040;-45
2023/08/23 04:53:26;;;;;;;17.85;8.10;;;;;;;21.01;77.63;102073.66;5050220;28;20033;-47
2023/08/23 04:55:56;;;;;;;16.42;7.55;;;;;;;21.10;77.43;102071.81;5049241;28;20040;-46
2023/08/23 04:58:27;;;;;;;19.15;8.82;;;;;;;21.06;77.79;102065.66;5050325;28;20033;-44
2023/08/23 05:00:54;;;;;;;23.35;9.18;;;;;;;21.09;78.13;102072.72;5049484;28;20033;-43
2023/08/23 05:03:20;;;;;;;22.80;9.45;;;;;;;21.11;78.71;102071.78;5049924;28;20037;-45
2023/08/23 05:05:45;;;;;;;21.83;8.98;;;;;;;21.24;78.26;102072.56;5051497;28;20099;-42
2023/08/23 05:08:11;;;;;;;22.55;9.00;;;;;;;21.30;78.00;102068.06;5053362;28;20032;-41
2023/08/23 05:10:36;;;;;;;20.25;8.60;;;;;;;21.39;78.09;102069.72;5052118;28;20029;-43
2023/08/23 05:13:02;;;;;;;24.45;9.85;;;;;;;21.36;78.02;102070.63;5050264;28;20036;-45
2023/08/23 05:15:28;;;;;;;25.38;9.63;;;;;;;21.48;77.95;102074.91;5049765;28;20093;-43
2023/08/23 05:17:53;;;;;;;24.92;9.68;;;;;;;21.51;77.93;102076.66;5049262;28;20032;-44
2023/08/23 05:20:19;;;;;;;25.33;10.00;;;;;;;21.60;78.29;102073.88;5050103;28;20059;-45
2023/08/23 05:22:44;;;;;;;25.98;9.85;;;;;;;21.72;77.99;102074.59;5049217;28;20079;-44
2023/08/23 05:25:09;;;;;;;22.13;9.13;;;;;;;21.81;78.02;102068.28;5031204;28;20032;-44
2023/08/23 05:27:35;;;;;;;22.65;9.40;;;;;;;21.90;77.79;102064.59;5049758;28;20036;-50
2023/08/23 05:30:03;;;;;;;25.17;9.52;;;;;;;21.96;77.92;102061.88;5049087;28;20044;-43
2023/08/23 05:32:28;;;;;;;25.77;10.00;;;;;;;22.06;77.59;102066.19;5048528;28;20384;-45
2023/08/23 05:34:54;;;;;;;23.92;9.95;;;;;;;22.09;77.50;102074.97;5048679;28;20100;-44
2023/08/23 05:37:19;;;;;;;28.98;10.45;;;;;;;22.32;77.32;102076.41;5048287;28;20025;-48
2023/08/23 05:39:45;;;;;;;25.88;9.25;;;;;;;22.44;77.24;102066.47;5049133;28;20529;-44
2023/08/23 05:42:10;;;;;;;23.13;9.73;;;;;;;22.56;76.99;102070.69;5049609;28;20039;-42
2023/08/23 05:44:36;;;;;;;24.40;10.15;;;;;;;22.58;76.94;102063.53;5031451;28;20483;-45
2023/08/23 05:47:01;;;;;;;24.58;9.60;;;;;;;22.70;76.39;102073.97;5048013;28;20433;-43
2023/08/23 05:49:27;;;;;;;21.58;9.52;;;;;;;22.71;76.10;102070.41;5049397;28;20024;-45
2023/08/23 05:51:53;;;;;;;25.48;9.85;;;;;;;22.81;76.05;102076.47;5047697;28;20029;-44
2023/08/23 05:54:19;;;;;;;28.60;10.20;;;;;;;22.69;75.64;102081.97;5046938;28;20017;-48
2023/08/23 05:56:44;;;;;;;21.13;9.23;;;;;;;22.90;75.52;102081.63;5030850;28;20074;-48
2023/08/23 05:59:09;;;;;;;24.80;10.02;;;;;;;22.89;75.32;102086.06;5049312;28;20555;-45
2023/08/23 06:01:38;;;;;;;25.05;10.23;;;;;;;22.84;75.39;102087.03;5049217;28;20041;-42
2023/08/23 06:04:03;;;;;;;28.63;10.98;;;;;;;22.71;75.62;102088.13;5048707;28;20037;-48
2023/08/23 06:06:29;;;;;;;30.85;11.27;;;;;;;22.81;75.75;102084.47;5048659;28;20036;-46
2023/08/23 06:08:54;;;;;;;28.05;11.07;;;;;;;23.03;75.78;102086.69;5048946;28;20033;-45
2023/08/23 06:11:19;;;;;;;30.55;11.48;;;;;;;23.13;75.45;102094.47;5049217;28;20098;-46
2023/08/23 06:13:46;;;;;;;30.67;11.10;;;;;;;23.14;75.15;102088.25;5048661;28;20029;-45
2023/08/23 06:16:11;;;;;;;30.52;11.25;;;;;;;23.28;75.22;102094.19;5048718;28;20033;-44
2023/08/23 06:18:37;;;;;;;31.70;11.80;;;;;;;22.98;75.56;102093.88;5049217;28;20055;-41
2023/08/23 06:21:02;;;;;;;32.20;12.93;;;;;;;23.28;75.46;102095.06;5048601;28;20065;-43
2023/08/23 06:23:28;;;;;;;33.35;12.48;;;;;;;23.36;74.84;102109.06;5049345;28;20081;-43
2023/08/23 06:25:58;;;;;;;33.63;12.35;;;;;;;23.26;74.82;102099.53;5049051;28;20041;-46
2023/08/23 06:28:23;;;;;;;34.17;13.18;;;;;;;23.19;75.42;102099.69;5049575;28;20400;-43
2023/08/23 06:30:49;;;;;;;34.67;12.85;;;;;;;23.29;75.32;102109.25;5048418;28;20063;-46
2023/08/23 06:33:14;;;;;;;36.58;13.20;;;;;;;23.23;75.78;102110.25;5049041;28;20029;-44
2023/08/23 06:35:39;;;;;;;33.22;13.60;;;;;;;23.12;75.91;102103.34;5048260;28;20031;-43
2023/08/23 06:38:05;;;;;;;35.33;14.18;;;;;;;23.27;75.83;102111.94;5048511;28;20063;-45
2023/08/23 06:40:30;;;;;;;35.08;13.55;;;;;;;23.45;75.65;102111.56;5048680;28;20028;-47
2023/08/23 06:42:55;;;;;;;30.95;12.32;;;;;;;23.64;75.39;102114.75;5048542;28;20063;-44
2023/08/23 06:45:21;;;;;;;30.52;11.95;;;;;;;;;;5048675;28;20032;-44
2023/08/23 06:47:46;;;;;;;31.38;12.32;;;;;;;23.77;73.91;102116.25;5048617;28;20529;-45
2023/08/23 06:50:11;;;;;;;29.52;11.95;;;;;;;23.80;74.12;102118.84;5048967;28;20044;-41
2023/08/23 06:52:37;;;;;;;27.20;11.82;;;;;;;23.83;72.93;102118.78;5048769;28;20119;-48
2023/08/23 06:55:03;;;;;;;25.45;11.13;;;;;;;24.02;73.19;102111.28;5047844;28;20067;-43
2023/08/23 06:57:29;;;;;;;27.90;11.95;;;;;;;23.96;73.37;102116.72;5048985;28;20052;-47
2023/08/23 06:59:58;;;;;;;29.42;11.65;;;;;;;24.05;73.43;102115.63;5048331;28;20457;-47
2023/08/23 07:02:25;;;;;;;26.33;12.38;;;;;;;24.00;73.62;102126.41;5049041;28;20063;-46
2023/08/23 07:04:51;;;;;;;27.85;12.25;;;;;;;23.87;73.27;102127.56;5047962;28;20040;-43
2023/08/23 07:07:17;;;;;;;25.23;11.20;;;;;;;24.33;73.42;102119.47;5051369;28;20029;-44
2023/08/23 07:09:42;;;;;;;26.10;11.82;;;;;;;23.96;72.41;102124.72;5051565;28;20037;-45
2023/08/23 07:12:08;;;;;;;22.30;11.20;;;;;;;23.79;73.27;102116.19;5051717;28;20028;-48
2023/08/23 07:14:33;;;;;;;24.60;11.82;;;;;;;23.98;72.79;102122.88;5051598;28;20041;-44
2023/08/23 07:16:58;;;;;;;27.08;11.98;;;;;;;24.21;72.09;102109.09;5051917;28;20033;-46
2023/08/23 07:19:24;;;;;;;27.85;12.63;;;;;;;24.24;71.93;102117.00;5051983;28;20029;-48
2023/08/23 07:21:49;;;;;;;26.77;11.65;;;;;;;24.37;70.01;102125.56;5051385;28;20052;-43
2023/08/23 07:24:14;;;;;;;24.60;11.63;;;;;;;24.37;71.06;102120.25;5051903;28;20483;-49
2023/08/23 07:26:40;;;;;;;23.80;11.65;;;;;;;24.46;70.31;102133.34;5050074;28;20040;-48
2023/08/23 07:29:05;;;;;;;25.02;12.27;;;;;;;24.72;70.35;102135.38;5051140;28;20068;-46
2023/08/23 07:31:30;;;;;;;27.88;12.45;;;;;;;24.19;71.11;102143.75;5051377;28;20032;-44
2023/08/23 07:33:56;;;;;;;24.10;12.38;;;;;;;24.26;71.05;102136.50;5051204;28;20048;-44
2023/08/23 07:36:21;;;;;;;26.40;13.07;;;;;;;24.20;71.77;102147.31;5051161;28;20470;-48
2023/08/23 07:38:46;;;;;;;29.77;13.77;;;;;;;24.20;70.79;102142.84;5051378;28;20048;-44
2023/08/23 07:41:12;;;;;;;27.27;13.75;;;;;;;24.72;70.26;102146.91;5051446;28;20029;-45
2023/08/23 07:43:37;;;;;;;28.33;13.75;;;;;;;25.17;68.52;102144.88;5051695;28;20029;-48
2023/08/23 07:46:03;;;;;;;27.70;14.23;;;;;;;25.99;66.83;102146.97;5050751;28;20416;-44
2023/08/23 07:48:28;;;;;;;25.50;14.80;;;;;;;26.84;63.16;102144.22;5051433;28;20029;-46
2023/08/23 07:50:55;;;;;;;28.85;15.68;;;;;;;27.06;60.15;102142.63;5050994;28;20037;-45
2023/08/23 07:53:22;;;;;;;27.17;15.57;;;;;;;27.30;59.45;102132.84;5051515;28;20033;-43
2023/08/23 07:55:47;;;;;;;28.65;16.75;;;;;;;28.07;55.87;102134.38;5050329;28;20228;-45
2023/08/23 07:58:13;;;;;;;27.27;14.95;;;;;;;29.21;54.71;102141.25;5051356;28;20556;-43
2023/08/23 08:00:39;;;;;;;29.90;16.60;;;;;;;29.19;52.64;102145.81;5049963;28;20456;-44
2023/08/23 08:03:04;;;;;;;30.65;16.73;;;;;;;28.21;55.64;102146.34;5050727;28;20041;-46
2023/08/23 08:05:30;;;;;;;28.30;15.88;;;;;;;27.79;55.54;102153.34;5050770;28;20036;-46
2023/08/23 08:07:56;;;;;;;27.38;15.50;;;;;;;27.28;58.76;102159.66;5050917;28;20491;-40
2023/08/23 08:10:22;;;;;;;25.75;15.30;;;;;;;27.20;59.63;102155.53;5051055;28;20602;-45
2023/08/23 08:12:48;;;;;;;28.00;15.07;;;;;;;27.06;59.11;102161.34;5049291;28;20033;-46
2023/08/23 08:15:13;;;;;;;24.85;14.02;;;;;;;27.14;59.82;102155.75;5050477;28;20439;-43
2023/08/23 08:17:39;;;;;;;25.38;15.57;;;;;;;27.30;58.15;102157.81;5050872;28;20041;-46
2023/08/23 08:20:07;;;;;;;28.33;15.55;;;;;;;27.36;60.00;102154.91;5050778;28;20794;-45
2023/08/23 08:22:32;;;;;;;30.00;15.20;;;;;;;27.91;57.70;102152.00;5051387;28;20035;-45
2023/08/23 08:24:58;;;;;;;33.45;15.82;;;;;;;27.01;59.70;102150.81;5050265;28;20033;-46
2023/08/23 08:27:23;;;;;;;30.38;16.13;;;;;;;27.36;58.93;102140.66;5050780;28;20087;-47
2023/08/23 08:29:49;;;;;;;26.77;15.90;;;;;;;27.43;58.42;102153.75;5050343;28;20411;-47
2023/08/23 08:32:14;;;;;;;27.70;15.40;;;;;;;27.66;56.42;102147.56;5050796;28;20104;-48
2023/08/23 08:34:39;;;;;;;25.85;15.07;;;;;;;27.62;57.05;102148.63;5050094;28;20110;-47
2023/08/23 08:37:06;;;;;;;23.73;14.30;;;;;;;27.75;57.22;102144.53;5050366;28;20656;-45
2023/08/23 08:39:31;;;;;;;27.77;15.57;;;;;;;27.67;57.59;102143.09;5050426;28;20037;-44
2023/08/23 08:41:59;;;;;;;26.88;15.43;;;;;;;27.75;57.58;102157.09;5049965;28;20040;-45
2023/08/23 08:44:25;;;;;;;28.27;15.63;;;;;;;27.76;57.26;102159.69;5049937;28;20060;-48
2023/08/23 08:46:51;;;;;;;25.05;15.80;;;;;;;27.33;59.33;102164.84;5050252;28;20036;-49
2023/08/23 08:49:16;;;;;;;25.23;15.35;;;;;;;26.60;61.00;102154.84;5050208;28;20037;-48
2023/08/23 08:51:45;;;;;;;24.23;15.00;;;;;;;27.12;58.90;102150.44;5049773;28;20519;-51
2023/08/23 08:54:14;;;;;;;23.95;15.43;;;;;;;26.52;60.37;102159.59;5050203;28;20040;-46
2023/08/23 08:56:40;;;;;;;23.35;14.50;;;;;;;26.61;60.77;102155.72;5049819;28;20141;-45
2023/08/23 08:59:07;;;;;;;24.38;15.38;;;;;;;26.62;60.82;102153.00;5049669;28;20603;-47
2023/08/23 09:01:35;;;;;;;26.52;14.27;;;;;;;25.99;62.49;102153.19;5050050;28;20492;-43
2023/08/23 09:04:01;;;;;;;23.00;13.65;;;;;;;25.62;63.45;102158.75;5049592;28;20045;-44
2023/08/23 09:06:27;;;;;;;21.35;13.52;;;;;;;25.53;63.90;102164.34;5049541;28;20380;-46
2023/08/23 09:08:53;;;;;;;20.77;12.45;;;;;;;26.03;61.82;102159.34;5049277;28;20065;-45
2023/08/23 09:11:19;;;;;;;23.33;12.77;;;;;;;26.23;61.30;102168.50;5049917;28;20033;-43
2023/08/23 09:13:44;;;;;;;18.83;12.32;;;;;;;26.37;60.90;102165.41;5049347;28;20124;-44
2023/08/23 09:16:12;;;;;;;20.25;12.32;;;;;;;26.40;61.40;102159.97;5049282;28;20074;-48
2023/08/23 09:18:43;;;;;;;19.63;10.77;;;;;;;27.07;59.11;102157.75;5050042;28;20030;-46
2023/08/23 09:21:10;;;;;;;17.02;11.27;;;;;;;26.87;59.04;102157.53;5049103;28;20055;-45
2023/08/23 09:23:35;;;;;;;20.67;11.95;;;;;;;26.47;59.01;102158.84;5048358;28;20056;-45
2023/08/23 09:26:00;;;;;;;17.83;10.68;;;;;;;26.87;58.28;102149.50;5048708;28;20061;-45
2023/08/23 09:28:28;;;;;;;14.43;10.30;;;;;;;26.68;58.74;102151.91;5048744;28;20033;-49
2023/08/23 09:30:54;;;;;;;16.38;10.90;;;;;;;26.52;59.55;102156.91;5049216;28;20688;-46
2023/08/23 09:33:20;;;;;;;18.70;10.93;;;;;;;26.11;61.28;102157.28;5049331;28;20029;-48
2023/08/23 09:35:49;;;;;;;14.77;9.32;;;;;;;26.37;59.75;102152.03;5048217;28;20025;-45
2023/08/23 09:38:21;;;;;;;15.02;9.30;;;;;;;26.09;59.08;102154.69;5049459;28;20399;-48
2023/08/23 09:40:47;;;;;;;12.50;7.97;;;;;;;26.90;57.00;102138.69;5048768;28;20033;-44
2023/08/23 09:43:15;;;;;;;12.52;8.30;;;;;;;27.30;54.53;102136.38;5049458;28;20076;-50
2023/08/23 09:45:41;;;;;;;15.30;8.27;;;;;;;27.36;54.07;102146.00;5048956;28;20060;-47
2023/08/23 09:48:09;;;;;;;11.38;7.15;;;;;;;26.85;53.86;102137.97;5049039;28;20090;-45
2023/08/23 09:50:35;;;;;;;13.20;7.82;;;;;;;27.21;54.75;102142.06;5049219;28;20033;-44
2023/08/23 09:53:04;;;;;;;91.85;12.50;;;;;;;27.08;54.93;102138.06;5049259;28;20520;-44
2023/08/23 09:55:31;;;;;;;13.48;7.43;;;;;;;27.27;54.29;102144.50;5050119;28;20048;-45
2023/08/23 09:57:58;;;;;;;15.23;7.35;;;;;;;27.33;53.72;102138.06;5050240;28;20064;-45
2023/08/23 10:00:25;;;;;;;14.32;7.00;;;;;;;27.26;53.37;102136.56;5049587;28;20047;-45
2023/08/23 10:02:52;;;;;;;14.75;6.72;;;;;;;27.25;53.07;102132.13;5048749;28;20083;-48
2023/08/23 10:05:18;;;;;;;17.98;7.75;;;;;;;27.51;52.73;102137.41;5048511;28;20048;-43
2023/08/23 10:07:44;;;;;;;11.75;6.47;;;;;;;27.90;52.69;102137.72;5048661;28;20091;-43
2023/08/23 10:10:10;;;;;;;12.30;6.15;;;;;;;27.94;53.52;102130.41;5049039;28;20037;-43
2023/08/23 10:12:40;;;;;;;10.20;5.70;;;;;;;28.47;51.02;102128.31;5049022;28;20028;-46
2023/08/23 10:15:08;;;;;;;10.15;5.38;;;;;;;27.92;52.63;102127.81;5047893;28;20037;-45
2023/08/23 10:17:35;;;;;;;10.48;5.18;;;;;;;28.13;50.66;102118.03;5049058;28;20032;-45
2023/08/23 10:20:07;;;;;;;12.93;7.18;;;;;;;27.60;51.85;102126.38;5048221;28;20041;-49
2023/08/23 10:22:33;;;;;;;12.93;5.75;;;;;;;28.30;50.71;102118.25;5047672;28;20113;-44
2023/08/23 10:24:58;;;;;;;9.82;5.40;;;;;;;28.69;49.44;102118.41;5047947;28;20029;-46
2023/08/23 10:27:27;;;;;;;11.60;5.63;;;;;;;28.25;50.72;102118.44;5049148;28;20128;-44
2023/08/23 10:29:52;;;;;;;9.38;4.75;;;;;;;28.55;49.88;102110.06;5048006;28;20128;-47
2023/08/23 10:32:18;;;;;;;11.27;4.53;;;;;;;28.45;49.56;102109.59;5048818;28;20104;-45
2023/08/23 10:34:43;;;;;;;9.13;4.30;;;;;;;28.81;48.01;102111.69;5047876;28;20033;-49
2023/08/23 10:37:20;;;;;;;7.78;3.90;;;;;;;28.84;47.63;102109.75;5048905;28;20057;-45
2023/08/23 10:39:50;;;;;;;8.77;3.65;;;;;;;27.98;50.88;102114.19;5048505;28;20075;-50
2023/08/23 10:42:20;;;;;;;8.40;3.55;;;;;;;27.42;52.14;102117.19;5052767;28;20036;-50
2023/08/23 10:45:04;;;;;;;6.70;2.70;;;;;;;27.43;49.22;102116.25;5051640;28;20028;-48
2023/08/23 10:47:33;;;;;;;;;;;;;;;27.19;49.41;102113.59;5053064;28;20521;-47
2023/08/23 10:49:59;;;;;;;3.95;2.10;;;;;;;27.39;49.04;102109.25;5051913;28;20375;-47
2023/08/23 10:52:25;;;;;;;5.47;2.20;;;;;;;27.95;45.90;102114.28;5052405;28;20029;-45
2023/08/23 10:54:51;;;;;;;4.25;2.00;;;;;;;28.02;46.03;102117.59;5051164;28;20406;-48
2023/08/23 10:57:17;;;;;;;7.82;2.10;;;;;;;27.86;46.06;102117.34;5052285;28;20075;-46
2023/08/23 10:59:43;;;;;;;16.80;3.17;;;;;;;28.32;44.48;102112.84;5051614;28;20414;-51
2023/08/23 11:02:09;;;;;;;37.50;5.55;;;;;;;28.15;42.85;102122.44;5052252;28;20032;-47
2023/08/23 11:04:34;;;;;;;38.20;8.15;;;;;;;28.12;39.09;102117.16;5051538;28;20033;-46
2023/08/23 11:06:59;;;;;;;7.45;1.63;;;;;;;28.29;39.71;102102.25;5051768;28;20052;-46
2023/08/23 11:09:25;;;;;;;5.22;1.55;;;;;;;28.23;41.00;102116.78;5052069;28;20044;-47
2023/08/23 11:11:50;;;;;;;4.15;1.42;;;;;;;28.69;38.34;102106.81;5051071;28;20458;-48
2023/08/23 11:14:15;;;;;;;3.20;1.35;;;;;;;28.62;39.65;102115.13;5051739;28;20033;-47